createdAt,value
2022-12-31T00:00:15.783Z,24.55
2022-12-31T00:03:17.926Z,23.05
2022-12-31T00:06:22.747Z,26.88
2022-12-31T00:09:24.710Z,24.53
2022-12-31T00:12:26.716Z,22.38
2022-12-31T00:15:28.869Z,25.05
2022-12-31T00:18:30.924Z,22.13
2022-12-31T00:21:33.394Z,21.67
2022-12-31T00:24:36.013Z,23.73
2022-12-31T00:27:38.067Z,21.45
2022-12-31T00:30:40.075Z,23.13
2022-12-31T00:33:42.315Z,22.38
2022-12-31T00:36:46.165Z,22.13
2022-12-31T00:39:48.332Z,19.53
2022-12-31T00:42:50.327Z,21.75
2022-12-31T00:45:52.401Z,20.77
2022-12-31T00:48:54.543Z,21.27
2022-12-31T00:51:56.561Z,18.10
2022-12-31T00:54:58.592Z,21.63
2022-12-31T00:58:00.594Z,20.98
2022-12-31T01:01:12.755Z,20.65
2022-12-31T01:04:17.572Z,21.17
2022-12-31T01:07:19.617Z,24.25
2022-12-31T01:10:41.601Z,20.33
2022-12-31T01:13:43.635Z,19.67
2022-12-31T01:16:45.688Z,20.27
2022-12-31T01:19:47.720Z,19.30
2022-12-31T01:22:49.736Z,23.00
2022-12-31T01:25:51.765Z,22.40
2022-12-31T01:28:53.814Z,22.98
2022-12-31T01:31:55.832Z,23.08
2022-12-31T01:34:57.847Z,23.38
2022-12-31T01:37:59.902Z,23.73
2022-12-31T01:41:02.155Z,21.20
2022-12-31T01:44:13.361Z,23.80
2022-12-31T01:47:17.272Z,22.95
2022-12-31T01:50:24.640Z,23.80
2022-12-31T01:53:26.636Z,21.95
2022-12-31T01:56:28.749Z,24.42
2022-12-31T01:59:31.441Z,24.00
2022-12-31T02:02:33.640Z,23.27
2022-12-31T02:06:01.994Z,22.45
2022-12-31T02:09:04.076Z,24.63
2022-12-31T02:12:06.936Z,25.73
2022-12-31T02:15:09.329Z,26.25
2022-12-31T02:18:14.208Z,25.13
2022-12-31T02:21:16.186Z,25.57
2022-12-31T02:24:36.198Z,25.60
2022-12-31T02:27:41.320Z,23.60
2022-12-31T02:30:46.697Z,27.90
2022-12-31T02:33:53.221Z,25.02
2022-12-31T02:36:56.765Z,27.52
2022-12-31T02:39:59.074Z,25.75
2022-12-31T02:43:01.080Z,26.97
2022-12-31T02:46:27.337Z,27.52
2022-12-31T02:49:47.764Z,25.92
2022-12-31T02:52:58.375Z,24.07
2022-12-31T02:56:00.426Z,28.05
2022-12-31T02:59:30.290Z,28.08
2022-12-31T03:02:33.713Z,28.20
2022-12-31T03:05:39.311Z,31.23
2022-12-31T03:09:02.126Z,33.13
2022-12-31T03:12:23.772Z,32.63
2022-12-31T03:15:27.460Z,29.23
2022-12-31T03:19:07.854Z,29.38
2022-12-31T03:22:30.221Z,28.00
2022-12-31T03:25:35.822Z,28.00
2022-12-31T03:28:38.710Z,28.42
2022-12-31T03:31:40.847Z,30.55
2022-12-31T03:34:42.997Z,27.92
2022-12-31T03:37:44.957Z,27.98
2022-12-31T03:40:50.862Z,28.73
2022-12-31T03:43:52.856Z,28.58
2022-12-31T03:46:54.837Z,27.80
2022-12-31T03:49:56.849Z,32.67
2022-12-31T03:52:59.013Z,29.27
2022-12-31T03:56:01.000Z,32.17
2022-12-31T03:59:03.052Z,31.02
2022-12-31T04:02:05.364Z,31.42
2022-12-31T04:05:07.608Z,28.98
2022-12-31T04:08:09.672Z,32.13
2022-12-31T04:11:14.748Z,32.60
2022-12-31T04:14:21.212Z,30.98
2022-12-31T04:17:23.233Z,29.53
2022-12-31T04:20:25.287Z,34.70
2022-12-31T04:23:27.283Z,32.17
2022-12-31T04:26:29.297Z,29.83
2022-12-31T04:29:31.395Z,33.22
2022-12-31T04:32:33.537Z,31.92
2022-12-31T04:35:35.596Z,33.28
2022-12-31T04:38:37.634Z,29.70
2022-12-31T04:41:39.687Z,27.65
2022-12-31T04:44:41.681Z,31.13
2022-12-31T04:47:43.683Z,31.37
2022-12-31T04:50:46.750Z,29.40
2022-12-31T04:53:48.893Z,30.85
2022-12-31T04:56:50.926Z,29.27
2022-12-31T04:59:52.927Z,25.90
2022-12-31T05:02:54.988Z,27.85
2022-12-31T05:06:12.065Z,26.15
2022-12-31T05:09:14.048Z,24.55
2022-12-31T05:12:16.100Z,26.17
2022-12-31T05:15:18.163Z,30.92
2022-12-31T05:18:21.637Z,26.47
2022-12-31T05:21:23.667Z,25.70
2022-12-31T05:24:25.707Z,23.98
2022-12-31T05:27:28.419Z,25.03
2022-12-31T05:30:30.456Z,27.08
2022-12-31T05:33:32.527Z,31.17
2022-12-31T05:36:34.552Z,28.00
2022-12-31T05:39:36.545Z,27.77
2022-12-31T05:42:40.120Z,27.20
2022-12-31T05:45:42.208Z,24.88
2022-12-31T05:48:44.229Z,25.60
2022-12-31T05:51:46.265Z,27.02
2022-12-31T05:54:48.310Z,25.83
2022-12-31T05:57:50.329Z,26.80
2022-12-31T06:00:52.585Z,23.80
2022-12-31T06:03:54.626Z,26.10
2022-12-31T06:06:56.696Z,23.98
2022-12-31T06:09:58.991Z,22.33
2022-12-31T06:13:01.017Z,27.40
2022-12-31T06:16:06.951Z,24.88
2022-12-31T06:19:09.518Z,26.83
2022-12-31T06:22:11.537Z,26.42
2022-12-31T06:25:13.581Z,26.73
2022-12-31T06:28:20.019Z,27.47
2022-12-31T06:31:22.676Z,30.52
2022-12-31T06:34:24.786Z,33.30
2022-12-31T06:37:26.986Z,32.53
2022-12-31T06:40:28.989Z,30.38
2022-12-31T06:43:31.043Z,38.40
2022-12-31T06:46:33.049Z,29.98
2022-12-31T06:49:35.085Z,26.30
2022-12-31T06:52:37.231Z,29.60
2022-12-31T06:55:39.518Z,28.95
2022-12-31T06:58:41.868Z,31.53
2022-12-31T07:01:56.047Z,36.60
2022-12-31T07:05:10.072Z,29.48
2022-12-31T07:08:12.090Z,22.80
2022-12-31T07:11:25.357Z,27.23
2022-12-31T07:14:39.373Z,29.95
2022-12-31T07:17:47.874Z,31.80
2022-12-31T07:20:50.178Z,31.03
2022-12-31T07:23:52.316Z,36.72
2022-12-31T07:27:05.216Z,30.85
2022-12-31T07:30:12.360Z,33.47
2022-12-31T07:33:32.756Z,30.73
2022-12-31T07:36:50.603Z,36.38
2022-12-31T07:40:11.294Z,39.35
2022-12-31T07:43:18.297Z,35.95
2022-12-31T07:46:44.142Z,30.67
2022-12-31T07:49:46.320Z,29.85
2022-12-31T07:52:48.383Z,31.67
2022-12-31T07:56:08.949Z,36.25
2022-12-31T07:59:17.385Z,30.23
2022-12-31T08:02:37.445Z,31.73
2022-12-31T08:05:39.523Z,33.80
2022-12-31T08:08:41.646Z,31.58
2022-12-31T08:11:49.123Z,33.17
2022-12-31T08:14:51.313Z,31.58
2022-12-31T08:17:53.428Z,29.60
2022-12-31T08:21:00.729Z,28.45
2022-12-31T08:24:05.569Z,32.40
2022-12-31T08:27:15.294Z,36.05
2022-12-31T08:30:19.451Z,33.45
2022-12-31T08:33:39.996Z,34.23
2022-12-31T08:36:42.397Z,32.10
2022-12-31T08:39:44.387Z,32.25
2022-12-31T08:42:58.448Z,30.55
2022-12-31T08:46:00.564Z,32.50
2022-12-31T08:49:02.746Z,33.63
2022-12-31T08:52:13.033Z,34.95
2022-12-31T08:55:18.862Z,30.57
2022-12-31T08:58:20.915Z,33.38
2022-12-31T09:01:25.407Z,33.08
2022-12-31T09:04:43.011Z,41.20
2022-12-31T09:07:57.032Z,142.85
2022-12-31T09:10:59.007Z,41.13
2022-12-31T09:14:01.428Z,32.35
2022-12-31T09:17:07.614Z,28.40
2022-12-31T09:20:41.822Z,28.20
2022-12-31T09:23:45.385Z,28.02
2022-12-31T09:26:56.351Z,27.73
2022-12-31T09:29:58.428Z,28.02
2022-12-31T09:33:16.679Z,28.13
2022-12-31T09:36:30.906Z,27.17
2022-12-31T09:39:46.327Z,27.25
2022-12-31T09:42:49.132Z,27.88
2022-12-31T09:46:09.616Z,27.45
2022-12-31T09:49:11.695Z,26.90
2022-12-31T09:52:13.687Z,26.23
2022-12-31T09:55:30.741Z,28.67
2022-12-31T09:58:32.898Z,28.50
2022-12-31T10:01:47.004Z,29.92
2022-12-31T10:04:56.229Z,28.02
2022-12-31T10:08:01.072Z,29.07
2022-12-31T10:11:10.729Z,29.13
2022-12-31T10:14:18.711Z,25.80
2022-12-31T10:17:29.686Z,28.45
2022-12-31T10:20:45.594Z,27.45
2022-12-31T10:23:55.443Z,29.58
2022-12-31T10:27:16.562Z,28.63
2022-12-31T10:30:22.301Z,29.67
2022-12-31T10:33:24.535Z,29.67
2022-12-31T10:36:47.179Z,31.83
2022-12-31T10:39:56.651Z,33.17
2022-12-31T10:43:14.219Z,28.88
2022-12-31T10:46:22.441Z,27.48
2022-12-31T10:49:24.989Z,29.08
2022-12-31T10:52:41.557Z,27.27
2022-12-31T10:55:44.034Z,28.95
2022-12-31T10:58:48.926Z,28.25
2022-12-31T11:02:01.654Z,27.33
2022-12-31T11:05:09.683Z,27.65
2022-12-31T11:08:30.764Z,26.75
2022-12-31T11:11:51.283Z,30.90
2022-12-31T11:15:02.685Z,43.65
2022-12-31T11:18:17.896Z,27.60
2022-12-31T11:21:28.494Z,25.00
2022-12-31T11:24:49.250Z,23.17
2022-12-31T11:28:06.367Z,21.15
2022-12-31T11:31:32.792Z,20.00
2022-12-31T11:34:37.598Z,19.85
2022-12-31T11:37:47.638Z,19.05
2022-12-31T11:41:12.549Z,19.13
2022-12-31T11:44:33.263Z,21.05
2022-12-31T11:48:20.559Z,20.77
2022-12-31T11:51:32.661Z,23.45
2022-12-31T11:54:34.667Z,33.13
2022-12-31T11:57:37.959Z,24.25
2022-12-31T12:00:42.931Z,23.23
2022-12-31T12:03:45.376Z,30.88
2022-12-31T12:06:47.417Z,32.58
2022-12-31T12:09:50.160Z,33.22
2022-12-31T12:12:53.009Z,27.93
2022-12-31T12:15:57.231Z,21.23
2022-12-31T12:19:04.538Z,17.02
2022-12-31T12:22:11.242Z,17.73
2022-12-31T12:25:18.238Z,19.23
2022-12-31T12:28:21.863Z,18.30
2022-12-31T12:31:24.157Z,18.52
2022-12-31T12:34:28.342Z,15.82
2022-12-31T12:37:33.137Z,15.70
2022-12-31T12:40:35.186Z,16.23
2022-12-31T12:43:38.155Z,15.48
2022-12-31T12:46:49.699Z,14.95
2022-12-31T12:49:54.363Z,14.32
2022-12-31T12:52:59.699Z,15.67
2022-12-31T12:56:22.726Z,14.07
2022-12-31T12:59:24.722Z,14.98
2022-12-31T13:02:35.805Z,14.27
2022-12-31T13:05:41.038Z,13.98
2022-12-31T13:08:43.075Z,13.63
2022-12-31T13:12:23.693Z,13.67
2022-12-31T13:15:39.240Z,13.60
2022-12-31T13:18:50.207Z,12.25
2022-12-31T13:22:01.080Z,13.82
2022-12-31T13:25:06.020Z,12.83
2022-12-31T13:28:11.246Z,14.02
2022-12-31T13:31:15.274Z,16.40
2022-12-31T13:34:19.378Z,17.25
2022-12-31T13:37:42.153Z,16.70
2022-12-31T13:41:02.840Z,14.97
2022-12-31T13:44:12.038Z,14.50
2022-12-31T13:47:14.895Z,22.00
2022-12-31T13:50:22.798Z,24.75
2022-12-31T13:53:29.527Z,25.80
2022-12-31T13:56:36.357Z,24.57
2022-12-31T13:59:39.665Z,23.98
2022-12-31T14:02:56.940Z,24.80
2022-12-31T14:06:03.062Z,26.25
2022-12-31T14:09:06.059Z,26.43
2022-12-31T14:12:17.984Z,30.00
2022-12-31T14:15:26.397Z,26.42
2022-12-31T14:18:46.523Z,25.67
2022-12-31T14:21:57.464Z,27.50
2022-12-31T14:25:00.882Z,27.50
2022-12-31T14:28:04.397Z,26.73
2022-12-31T14:31:29.497Z,26.75
2022-12-31T14:34:40.406Z,21.02
2022-12-31T14:38:00.777Z,23.90
2022-12-31T14:41:02.889Z,35.35
2022-12-31T14:44:04.913Z,35.92
2022-12-31T14:47:06.937Z,31.20
2022-12-31T14:50:13.943Z,30.87
2022-12-31T14:53:26.096Z,31.45
2022-12-31T14:56:48.338Z,32.17
2022-12-31T15:00:19.245Z,41.88
2022-12-31T15:03:21.748Z,43.47
2022-12-31T15:06:23.995Z,37.55
2022-12-31T15:09:44.501Z,38.22
2022-12-31T15:12:51.524Z,34.80
2022-12-31T15:15:56.281Z,28.70
2022-12-31T15:19:04.186Z,27.70
2022-12-31T15:22:15.226Z,30.25
2022-12-31T15:25:40.808Z,37.03
2022-12-31T15:28:43.662Z,35.00
2022-12-31T15:31:47.171Z,38.80
2022-12-31T15:34:59.693Z,37.10
2022-12-31T15:38:04.458Z,33.20
2022-12-31T15:41:18.529Z,32.03
2022-12-31T15:44:23.283Z,33.08
2022-12-31T15:47:30.162Z,36.63
2022-12-31T15:50:35.845Z,38.38
2022-12-31T15:53:42.839Z,35.33
2022-12-31T15:56:47.372Z,32.97
2022-12-31T15:59:49.449Z,30.23
2022-12-31T16:02:54.997Z,33.53
2022-12-31T16:06:00.414Z,33.22
2022-12-31T16:09:03.211Z,31.53
2022-12-31T16:12:09.689Z,29.70
2022-12-31T16:15:20.654Z,34.00
2022-12-31T16:18:23.443Z,43.78
2022-12-31T16:21:28.432Z,80.35
2022-12-31T16:24:31.664Z,73.05
2022-12-31T16:27:35.434Z,58.80
2022-12-31T16:30:37.463Z,56.73
2022-12-31T16:33:39.519Z,61.22
2022-12-31T16:36:41.582Z,70.93
2022-12-31T16:39:58.870Z,77.65
2022-12-31T16:43:01.226Z,77.83
2022-12-31T16:46:23.025Z,78.75
2022-12-31T16:49:25.585Z,71.57
2022-12-31T16:52:30.726Z,86.87
2022-12-31T16:55:33.314Z,91.78
2022-12-31T16:58:37.336Z,109.13
2022-12-31T17:01:39.821Z,84.30
2022-12-31T17:04:48.100Z,82.40
2022-12-31T17:07:53.699Z,76.75
2022-12-31T17:10:56.610Z,55.00
2022-12-31T17:14:08.286Z,43.10
2022-12-31T17:17:19.565Z,38.75
2022-12-31T17:20:26.303Z,37.25
2022-12-31T17:23:31.431Z,31.75
2022-12-31T17:26:34.826Z,30.00
2022-12-31T17:29:36.917Z,26.67
2022-12-31T17:32:40.009Z,24.40
2022-12-31T17:35:43.285Z,19.03
2022-12-31T17:38:45.315Z,18.88
2022-12-31T17:41:48.119Z,17.25
2022-12-31T17:44:50.255Z,16.17
2022-12-31T17:47:53.831Z,18.40
2022-12-31T17:50:56.962Z,25.85
2022-12-31T17:54:00.442Z,23.80
2022-12-31T17:57:02.549Z,40.30
2022-12-31T18:00:06.693Z,40.35
2022-12-31T18:03:14.383Z,61.88
2022-12-31T18:06:17.289Z,81.88
2022-12-31T18:09:19.629Z,77.47
2022-12-31T18:12:21.798Z,81.10
2022-12-31T18:15:24.572Z,78.60
2022-12-31T18:18:28.081Z,53.72
2022-12-31T18:21:32.668Z,35.43
2022-12-31T18:24:34.997Z,29.33
2022-12-31T18:27:37.043Z,23.08
2022-12-31T18:30:39.167Z,19.85
2022-12-31T18:33:41.451Z,17.67
2022-12-31T18:36:43.493Z,16.83
2022-12-31T18:39:45.537Z,15.60
2022-12-31T18:42:47.646Z,14.67
2022-12-31T18:45:50.083Z,14.18
2022-12-31T18:48:52.202Z,13.55
2022-12-31T18:51:55.285Z,13.63
2022-12-31T18:54:57.395Z,13.07
2022-12-31T18:57:59.380Z,13.38
2022-12-31T19:01:01.554Z,14.35
2022-12-31T19:04:28.137Z,11.70
2022-12-31T19:07:30.480Z,12.03
2022-12-31T19:10:33.607Z,12.52
2022-12-31T19:13:35.717Z,14.48
2022-12-31T19:16:37.793Z,23.73
2022-12-31T19:19:39.884Z,29.67
2022-12-31T19:22:41.965Z,29.80
2022-12-31T19:25:44.270Z,27.60
2022-12-31T19:28:47.225Z,27.33
2022-12-31T19:31:49.744Z,27.90
2022-12-31T19:34:51.784Z,30.35
2022-12-31T19:37:54.782Z,32.00
2022-12-31T19:40:56.826Z,38.95
2022-12-31T19:43:58.854Z,38.63
2022-12-31T19:47:00.856Z,35.55
2022-12-31T19:50:03.099Z,34.22
2022-12-31T19:53:05.478Z,32.75
2022-12-31T19:56:11.015Z,32.03
2022-12-31T19:59:13.042Z,30.90
2022-12-31T20:02:15.282Z,33.15
2022-12-31T20:05:19.406Z,33.08
2022-12-31T20:08:23.052Z,35.93
2022-12-31T20:11:25.373Z,34.33
2022-12-31T20:14:27.487Z,37.00
2022-12-31T20:17:29.480Z,35.30
2022-12-31T20:20:31.542Z,34.50
2022-12-31T20:23:34.798Z,34.28
2022-12-31T20:26:36.802Z,37.28
2022-12-31T20:29:38.891Z,42.47
2022-12-31T20:32:40.942Z,49.95
2022-12-31T20:35:42.956Z,48.25
2022-12-31T20:38:45.004Z,63.77
2022-12-31T20:41:47.025Z,70.88
2022-12-31T20:44:49.056Z,76.05
2022-12-31T20:47:51.352Z,57.88
2022-12-31T20:50:56.869Z,56.97
2022-12-31T20:54:03.177Z,56.47
2022-12-31T20:57:05.241Z,56.83
2022-12-31T21:00:07.769Z,60.37
2022-12-31T21:03:30.148Z,55.45
2022-12-31T21:06:32.188Z,37.53
2022-12-31T21:09:34.240Z,34.40
2022-12-31T21:12:45.371Z,31.98
2022-12-31T21:15:47.939Z,40.65
2022-12-31T21:18:50.137Z,47.97
2022-12-31T21:21:52.124Z,56.40
2022-12-31T21:24:54.287Z,60.40
2022-12-31T21:27:56.329Z,58.67
2022-12-31T21:31:02.614Z,53.80
2022-12-31T21:34:04.760Z,48.83
2022-12-31T21:37:06.815Z,35.67
2022-12-31T21:40:09.155Z,25.63
2022-12-31T21:43:11.770Z,21.05
2022-12-31T21:46:13.781Z,12.80
2022-12-31T21:49:15.859Z,11.27
2022-12-31T21:52:27.029Z,13.93
2022-12-31T21:55:47.625Z,12.10
2022-12-31T21:59:28.894Z,19.30
2022-12-31T22:02:59.134Z,38.40
2022-12-31T22:06:16.300Z,54.40
2022-12-31T22:09:18.353Z,48.20
2022-12-31T22:12:20.375Z,44.92
2022-12-31T22:15:22.368Z,38.63
2022-12-31T22:18:24.601Z,36.63
2022-12-31T22:21:26.894Z,40.88
2022-12-31T22:24:28.920Z,31.87
2022-12-31T22:27:30.980Z,35.33
2022-12-31T22:30:33.401Z,43.67
2022-12-31T22:33:35.459Z,40.00
2022-12-31T22:36:37.463Z,37.67
2022-12-31T22:39:44.379Z,40.22
2022-12-31T22:42:46.956Z,41.50
2022-12-31T22:45:48.936Z,47.08
2022-12-31T22:48:51.515Z,40.05
2022-12-31T22:51:57.471Z,36.08
2022-12-31T22:55:01.812Z,46.47
2022-12-31T22:58:03.841Z,56.13
2022-12-31T23:01:06.771Z,51.00
2022-12-31T23:04:08.977Z,51.87
2022-12-31T23:07:11.110Z,53.50
2022-12-31T23:10:31.645Z,62.72
2022-12-31T23:13:57.725Z,67.88
2022-12-31T23:17:29.979Z,59.95
2022-12-31T23:20:52.029Z,69.00
2022-12-31T23:23:54.053Z,59.67
2022-12-31T23:26:57.061Z,71.70
2022-12-31T23:29:59.106Z,122.22
2022-12-31T23:33:01.141Z,125.55
2022-12-31T23:36:04.192Z,121.57
2022-12-31T23:39:06.173Z,71.63
2022-12-31T23:42:08.440Z,64.68
2022-12-31T23:45:10.571Z,54.13
2022-12-31T23:48:12.604Z,57.22
2022-12-31T23:51:14.599Z,58.80
2022-12-31T23:54:17.937Z,56.45
2022-12-31T23:57:19.984Z,53.40
